Time;durP1;ratioP1;P1;durP2;ratioP2;P2;SDS_P1;SDS_P2;PMS_P1;PMS_P2;Temp;Humidity;BMP_temperature;BMP_pressure;BME280_temperature;BME280_humidity;BME280_pressure;Samples;Min_cycle;Max_cycle;Signal;HPM_P1;HPM_P2
2024/02/17 00:01:34;;;;;;;2.53;2.33;;;15.80;74.00;;;;;;5004127;28;20113;-80
2024/02/17 00:04:00;;;;;;;2.28;2.17;;;15.80;73.90;;;;;;5005365;28;20045;-81
2024/02/17 00:06:25;;;;;;;2.20;2.10;;;15.80;73.80;;;;;;5002556;28;20045;-80
2024/02/17 00:08:51;;;;;;;2.58;2.47;;;15.80;73.90;;;;;;4985883;28;20057;-81
2024/02/17 00:11:16;;;;;;;2.63;2.42;;;15.80;73.80;;;;;;5019303;28;20084;-80
2024/02/17 00:13:43;;;;;;;2.63;2.15;;;15.80;73.70;;;;;;5005471;28;20415;-81
2024/02/17 00:16:08;;;;;;;2.20;2.10;;;15.80;73.90;;;;;;5005106;28;20120;-81
2024/02/17 00:18:34;;;;;;;2.15;2.05;;;15.80;73.80;;;;;;5005714;28;20575;-80
2024/02/17 00:21:03;;;;;;;1.95;1.85;;;15.80;73.80;;;;;;5000937;28;20096;-81
2024/02/17 00:23:29;;;;;;;2.25;2.15;;;15.70;73.70;;;;;;5005502;28;20416;-80
2024/02/17 00:25:54;;;;;;;2.10;1.92;;;15.70;73.80;;;;;;5004555;28;20029;-81
2024/02/17 00:28:25;;;;;;;2.13;2.03;;;15.70;74.40;;;;;;5004727;28;20466;-80
2024/02/17 00:30:51;;;;;;;2.10;2.00;;;15.70;73.60;;;;;;4974458;28;20523;-80
2024/02/17 00:33:16;;;;;;;2.35;2.25;;;15.70;73.60;;;;;;5013255;28;20046;-81
2024/02/17 00:35:43;;;;;;;2.08;1.98;;;15.70;73.60;;;;;;5004206;28;20088;-81
2024/02/17 00:38:08;;;;;;;2.28;2.15;;;15.70;73.70;;;;;;5016887;28;20045;-81
2024/02/17 00:40:37;;;;;;;2.50;2.30;;;15.70;73.50;;;;;;5003018;28;20049;-81
2024/02/17 00:43:03;;;;;;;2.97;2.30;;;15.70;73.50;;;;;;5003488;28;20038;-81
2024/02/17 00:45:29;;;;;;;2.00;1.90;;;15.70;73.50;;;;;;5005401;28;20503;-80
2024/02/17 00:47:55;;;;;;;2.25;2.15;;;15.70;73.60;;;;;;5001602;28;20137;-80
2024/02/17 00:50:20;;;;;;;2.38;2.17;;;15.70;73.50;;;;;;5002962;28;20049;-80
2024/02/17 00:52:46;;;;;;;2.10;2.00;;;15.70;73.50;;;;;;4982987;28;20065;-80
2024/02/17 00:55:13;;;;;;;2.08;1.98;;;15.70;73.40;;;;;;4999915;28;20096;-81
2024/02/17 00:57:38;;;;;;;2.10;2.00;;;15.70;73.40;;;;;;4999321;28;20529;-80
2024/02/17 01:00:04;;;;;;;2.10;1.90;;;15.70;73.50;;;;;;5001001;28;20050;-81
2024/02/17 01:02:32;;;;;;;2.00;1.90;;;15.70;73.60;;;;;;5015697;28;20395;-80
2024/02/17 01:04:59;;;;;;;2.15;2.00;;;15.70;73.50;;;;;;5005206;28;20041;-80
2024/02/17 01:07:25;;;;;;;2.17;2.08;;;15.70;73.50;;;;;;4999019;28;20050;-80
2024/02/17 01:09:50;;;;;;;2.03;1.92;;;15.70;73.40;;;;;;5020459;28;20137;-80
2024/02/17 01:12:16;;;;;;;2.47;2.28;;;15.70;73.40;;;;;;5016312;28;20566;-81
2024/02/17 01:14:42;;;;;;;1.98;1.88;;;15.70;73.50;;;;;;5000612;28;20049;-80
2024/02/17 01:17:07;;;;;;;2.00;1.90;;;15.70;73.50;;;;;;5002921;28;20506;-81
2024/02/17 01:19:33;;;;;;;2.10;2.00;;;15.70;73.30;;;;;;5018644;28;20050;-81
2024/02/17 01:21:59;;;;;;;2.00;1.90;;;15.70;73.30;;;;;;5005373;28;20038;-80
2024/02/17 01:24:24;;;;;;;1.77;1.67;;;15.70;73.40;;;;;;5001090;28;20396;-80
2024/02/17 01:26:50;;;;;;;1.98;1.88;;;15.60;73.30;;;;;;4999886;28;20042;-80
2024/02/17 01:29:18;;;;;;;2.40;2.22;;;15.70;73.20;;;;;;5001046;28;20065;-81
2024/02/17 01:31:44;;;;;;;2.30;2.10;;;15.60;73.30;;;;;;5001060;28;20048;-80
2024/02/17 01:34:10;;;;;;;2.13;2.03;;;15.60;73.20;;;;;;5017257;28;20041;-80
2024/02/17 01:36:35;;;;;;;2.10;2.00;;;15.60;73.10;;;;;;5002148;28;20133;-80
2024/02/17 01:39:01;;;;;;;2.10;2.00;;;15.60;73.20;;;;;;5000784;28;20064;-80
2024/02/17 01:41:27;;;;;;;2.00;1.90;;;15.60;73.10;;;;;;4995747;28;20520;-80
2024/02/17 01:43:52;;;;;;;2.60;2.40;;;15.60;73.20;;;;;;5002399;28;20531;-81
2024/02/17 01:46:18;;;;;;;2.42;2.22;;;15.70;73.20;;;;;;5001638;28;20078;-81
2024/02/17 01:48:43;;;;;;;1.85;1.75;;;15.60;73.20;;;;;;5003368;28;20070;-80
2024/02/17 01:51:11;;;;;;;2.05;1.95;;;15.60;73.00;;;;;;5001422;28;20044;-81
2024/02/17 01:53:37;;;;;;;2.15;2.05;;;15.60;73.10;;;;;;5000394;28;20532;-80
2024/02/17 01:56:04;;;;;;;2.28;2.17;;;15.60;73.20;;;;;;5002841;28;20037;-81
2024/02/17 01:58:30;;;;;;;2.67;2.47;;;15.60;73.00;;;;;;5002140;28;20057;-80
2024/02/17 02:00:57;;;;;;;1.95;1.85;;;15.60;73.10;;;;;;5004503;28;20035;-80
2024/02/17 02:03:22;;;;;;;1.98;1.88;;;15.60;73.20;;;;;;5002390;28;20046;-80
2024/02/17 02:05:48;;;;;;;2.35;2.25;;;15.60;73.30;;;;;;5016948;28;20526;-81
2024/02/17 02:08:14;;;;;;;2.30;2.10;;;15.60;73.10;;;;;;5001906;28;20034;-81
2024/02/17 02:10:39;;;;;;;2.10;2.00;;;15.60;73.20;;;;;;4997124;28;20041;-80
2024/02/17 02:13:05;;;;;;;2.30;2.20;;;15.60;73.00;;;;;;5003043;28;20555;-81
2024/02/17 02:15:31;;;;;;;2.03;1.92;;;15.60;73.30;;;;;;5003387;28;20411;-80
2024/02/17 02:17:56;;;;;;;2.17;2.08;;;15.60;73.10;;;;;;4997466;28;20049;-80
2024/02/17 02:20:24;;;;;;;2.25;2.05;;;15.60;73.20;;;;;;5003890;28;20042;-80
2024/02/17 02:22:50;;;;;;;1.63;1.52;;;15.60;73.10;;;;;;5016313;28;20037;-80
2024/02/17 02:25:25;;;;;;;2.30;2.17;;;15.60;73.10;;;;;;4999520;28;20049;-80
2024/02/17 02:27:54;;;;;;;2.35;2.20;;;15.60;73.10;;;;;;5001855;28;20065;-80
2024/02/17 02:30:20;;;;;;;1.95;1.85;;;15.60;73.10;;;;;;5014110;28;20121;-81
2024/02/17 02:32:46;;;;;;;1.95;1.85;;;15.60;73.10;;;;;;5015937;28;20136;-81
2024/02/17 02:35:11;;;;;;;4.57;1.98;;;15.60;73.00;;;;;;5014260;28;20515;-80
2024/02/17 02:37:37;;;;;;;2.17;2.08;;;15.60;73.20;;;;;;5000795;28;20476;-80
2024/02/17 02:40:03;;;;;;;2.50;2.30;;;15.60;73.10;;;;;;4993584;28;20049;-80
2024/02/17 02:42:28;;;;;;;1.88;1.77;;;15.60;73.20;;;;;;5017116;28;20125;-80
2024/02/17 02:44:54;;;;;;;1.85;1.75;;;15.60;73.00;;;;;;5015400;28;20121;-80
2024/02/17 02:47:20;;;;;;;1.98;1.88;;;15.60;73.30;;;;;;5003009;28;20117;-80
2024/02/17 02:49:45;;;;;;;2.05;1.95;;;15.50;73.10;;;;;;5015373;28;20110;-80
2024/02/17 02:52:12;;;;;;;1.85;1.75;;;15.50;73.20;;;;;;5001951;28;20050;-80
2024/02/17 02:54:37;;;;;;;2.15;2.05;;;15.50;73.30;;;;;;5001139;28;20050;-80
2024/02/17 02:57:03;;;;;;;1.95;1.80;;;15.50;73.10;;;;;;5002804;28;20092;-81
2024/02/17 02:59:29;;;;;;;2.50;2.30;;;15.50;73.00;;;;;;4999186;28;20054;-80
2024/02/17 03:01:54;;;;;;;1.85;1.75;;;15.50;73.10;;;;;;4996961;28;20504;-80
2024/02/17 03:04:20;;;;;;;1.90;1.80;;;15.50;73.10;;;;;;5001649;28;20400;-80
2024/02/17 03:06:46;;;;;;;2.15;2.03;;;15.50;73.00;;;;;;5003389;28;20581;-80
2024/02/17 03:09:12;;;;;;;2.10;1.92;;;15.50;73.10;;;;;;4998247;28;20041;-80
2024/02/17 03:11:37;;;;;;;1.55;1.45;;;15.50;73.00;;;;;;5014532;28;20042;-80
2024/02/17 03:14:03;;;;;;;2.03;1.92;;;15.50;73.00;;;;;;5000434;28;20415;-80
2024/02/17 03:16:29;;;;;;;1.60;1.50;;;15.50;73.10;;;;;;5001464;28;20049;-80
2024/02/17 03:18:55;;;;;;;2.10;2.00;;;15.50;72.90;;;;;;5002809;28;20565;-80
2024/02/17 03:21:21;;;;;;;2.30;2.13;;;15.50;73.00;;;;;;5003657;28;20142;-81
2024/02/17 03:23:46;;;;;;;1.90;1.80;;;15.50;73.00;;;;;;5002492;28;20094;-80
2024/02/17 03:26:12;;;;;;;2.15;2.05;;;15.50;72.90;;;;;;5002666;28;20508;-80
2024/02/17 03:28:38;;;;;;;2.00;1.80;;;15.50;73.00;;;;;;5002597;28;20125;-81
2024/02/17 03:31:04;;;;;;;1.80;1.70;;;15.50;73.00;;;;;;5003465;28;20066;-80
2024/02/17 03:33:30;;;;;;;1.42;1.33;;;15.50;72.80;;;;;;5004363;28;20371;-81
2024/02/17 03:35:55;;;;;;;1.73;1.63;;;15.50;73.00;;;;;;5003480;28;20044;-80
2024/02/17 03:38:21;;;;;;;1.67;1.55;;;15.50;73.00;;;;;;5000085;28;20116;-81
2024/02/17 03:40:46;;;;;;;2.08;1.88;;;15.40;73.00;;;;;;5002149;28;20133;-80
2024/02/17 03:43:12;;;;;;;2.40;2.20;;;15.50;73.10;;;;;;5005474;28;20041;-81
2024/02/17 03:45:37;;;;;;;2.03;1.92;;;15.40;73.10;;;;;;5006351;28;20046;-81
2024/02/17 03:48:03;;;;;;;2.20;2.10;;;15.50;72.90;;;;;;5003064;28;20030;-81
2024/02/17 03:50:29;;;;;;;2.05;1.95;;;15.40;73.00;;;;;;5001563;28;20062;-80
2024/02/17 03:52:55;;;;;;;1.70;1.60;;;15.50;72.90;;;;;;5019297;28;20058;-80
2024/02/17 03:55:20;;;;;;;2.25;2.03;;;15.50;73.10;;;;;;5004359;28;20096;-81
2024/02/17 03:57:46;;;;;;;1.90;1.80;;;15.50;73.00;;;;;;5002404;28;20534;-80
2024/02/17 04:00:13;;;;;;;1.77;1.67;;;15.50;73.00;;;;;;5002403;28;20034;-80
2024/02/17 04:02:41;;;;;;;1.83;1.73;;;15.50;73.10;;;;;;5006551;28;20045;-80
2024/02/17 04:05:11;;;;;;;1.80;1.70;;;15.50;73.00;;;;;;5017993;28;20034;-80
2024/02/17 04:07:38;;;;;;;1.75;1.65;;;15.50;73.10;;;;;;5002177;28;20573;-80
2024/02/17 04:10:04;;;;;;;2.00;1.90;;;15.50;72.80;;;;;;5005846;28;20057;-81
2024/02/17 04:12:31;;;;;;;1.40;1.30;;;15.50;72.90;;;;;;5004162;28;20458;-80
2024/02/17 04:14:57;;;;;;;1.73;1.63;;;15.40;72.90;;;;;;5002122;28;20054;-80
2024/02/17 04:17:22;;;;;;;1.80;1.70;;;15.50;73.00;;;;;;5005187;28;20511;-81
2024/02/17 04:19:48;;;;;;;1.65;1.55;;;15.50;73.10;;;;;;5001823;28;20030;-80
2024/02/17 04:22:14;;;;;;;1.73;1.63;;;15.50;72.90;;;;;;5005443;28;20026;-81
2024/02/17 04:24:39;;;;;;;1.70;1.60;;;15.50;73.70;;;;;;5006373;28;20054;-80
2024/02/17 04:27:07;;;;;;;1.70;1.60;;;15.50;72.90;;;;;;5000485;28;20576;-80
2024/02/17 04:29:32;;;;;;;1.70;1.60;;;15.50;72.90;;;;;;5002684;28;20030;-80
2024/02/17 04:31:58;;;;;;;1.77;1.67;;;15.50;73.00;;;;;;5016137;28;20034;-80
2024/02/17 04:34:24;;;;;;;1.90;1.80;;;15.50;73.60;;;;;;5005825;28;20096;-80
2024/02/17 04:36:49;;;;;;;1.75;1.65;;;15.40;72.80;;;;;;5007047;28;20042;-80
2024/02/17 04:39:15;;;;;;;2.15;2.05;;;15.50;73.00;;;;;;5003683;28;20037;-80
2024/02/17 04:41:40;;;;;;;1.80;1.70;;;15.50;72.80;;;;;;4998200;28;20061;-80
2024/02/17 04:44:06;;;;;;;2.05;1.63;;;15.40;72.90;;;;;;5000798;28;20054;-80
2024/02/17 04:46:32;;;;;;;1.55;1.45;;;15.50;72.90;;;;;;5004895;28;20120;-81
2024/02/17 04:48:57;;;;;;;2.00;1.60;;;15.50;72.80;;;;;;5005686;28;20704;-80
2024/02/17 04:51:23;;;;;;;1.67;1.58;;;15.50;72.80;;;;;;5005672;28;20057;-81
2024/02/17 04:53:48;;;;;;;1.70;1.52;;;15.40;72.80;;;;;;4999504;28;20033;-80
2024/02/17 04:56:14;;;;;;;1.65;1.55;;;15.40;72.90;;;;;;5000564;28;20047;-80
2024/02/17 04:58:44;;;;;;;1.60;1.50;;;15.40;72.90;;;;;;5001220;28;20060;-80
2024/02/17 05:01:10;;;;;;;1.63;1.52;;;15.40;72.70;;;;;;5019603;28;20033;-81
2024/02/17 05:03:36;;;;;;;1.60;1.50;;;15.40;72.80;;;;;;5001382;28;20030;-80
2024/02/17 05:06:02;;;;;;;1.58;1.42;;;15.40;72.90;;;;;;5005475;28;20499;-80
2024/02/17 05:08:27;;;;;;;1.70;1.60;;;15.40;72.70;;;;;;5000526;28;20049;-80
2024/02/17 05:10:53;;;;;;;1.70;1.60;;;15.40;72.80;;;;;;5002832;28;20112;-80
2024/02/17 05:13:19;;;;;;;1.77;1.67;;;15.40;73.00;;;;;;5003214;28;20054;-80
2024/02/17 05:15:44;;;;;;;1.77;1.67;;;15.40;72.80;;;;;;5004763;28;20038;-80
2024/02/17 05:18:10;;;;;;;1.63;1.52;;;15.40;72.80;;;;;;5003376;28;20041;-80
2024/02/17 05:20:35;;;;;;;1.63;1.52;;;15.40;72.80;;;;;;4995463;28;20030;-80
2024/02/17 05:23:01;;;;;;;1.77;1.67;;;15.40;72.80;;;;;;5017368;28;20049;-80
2024/02/17 05:25:27;;;;;;;1.85;1.75;;;15.40;72.80;;;;;;4998123;28;20500;-80
2024/02/17 05:27:52;;;;;;;1.63;1.52;;;15.40;72.80;;;;;;5004870;28;20405;-80
2024/02/17 05:30:18;;;;;;;1.80;1.70;;;15.40;72.90;;;;;;4998989;28;20030;-80
2024/02/17 05:32:44;;;;;;;1.70;1.60;;;15.40;72.90;;;;;;5002066;28;20389;-80
2024/02/17 05:35:09;;;;;;;1.50;1.40;;;15.40;72.70;;;;;;5002870;28;20046;-81
2024/02/17 05:37:35;;;;;;;1.60;1.42;;;15.40;72.90;;;;;;4997800;28;20096;-80
2024/02/17 05:40:01;;;;;;;1.70;1.60;;;15.40;72.90;;;;;;5004787;28;20030;-80
2024/02/17 05:42:27;;;;;;;1.67;1.58;;;15.40;72.80;;;;;;5001873;28;20428;-80
2024/02/17 05:44:53;;;;;;;1.67;1.58;;;15.40;72.80;;;;;;5012135;28;20501;-81
2024/02/17 05:47:18;;;;;;;1.70;1.60;;;15.40;72.90;;;;;;5002095;28;20038;-80
2024/02/17 05:49:45;;;;;;;1.77;1.67;;;15.40;72.90;;;;;;5000307;28;20576;-81
2024/02/17 05:52:11;;;;;;;1.60;1.50;;;15.40;73.00;;;;;;4998596;28;20516;-80
2024/02/17 05:54:36;;;;;;;1.70;1.60;;;15.40;73.70;;;;;;5003040;28;20045;-81
2024/02/17 05:57:02;;;;;;;1.75;1.65;;;15.40;72.90;;;;;;4997716;28;20037;-80
2024/02/17 05:59:28;;;;;;;1.40;1.30;;;15.40;72.90;;;;;;5014734;28;20029;-80
2024/02/17 06:01:53;;;;;;;1.77;1.67;;;15.40;73.00;;;;;;4996570;28;20030;-80
2024/02/17 06:04:19;;;;;;;1.70;1.10;;;15.30;72.80;;;;;;5003555;28;20049;-81
2024/02/17 06:06:45;;;;;;;1.88;1.77;;;15.40;72.90;;;;;;5003229;28;20037;-80
2024/02/17 06:09:10;;;;;;;1.98;1.88;;;15.40;72.90;;;;;;4997740;28;20045;-81
2024/02/17 06:11:36;;;;;;;1.55;1.45;;;15.40;73.70;;;;;;5001164;28;20061;-81
2024/02/17 06:14:01;;;;;;;1.65;1.55;;;15.40;72.80;;;;;;5013717;28;20527;-80
2024/02/17 06:16:28;;;;;;;1.80;1.70;;;15.40;73.00;;;;;;5000864;28;20058;-80
2024/02/17 06:21:48;;;;;;;;;;;15.40;73.00;;;;;;4985067;28;20428;-80
2024/02/17 06:24:13;;;;;;;1.40;1.30;;;15.40;73.00;;;;;;5000499;28;19921;-81
2024/02/17 06:26:39;;;;;;;1.67;1.58;;;15.30;72.90;;;;;;4984728;28;20049;-80
2024/02/17 06:29:05;;;;;;;1.77;1.67;;;15.40;73.90;;;;;;4984529;28;20484;-80
2024/02/17 06:31:31;;;;;;;1.60;1.50;;;15.40;73.00;;;;;;4967715;28;20042;-81
2024/02/17 06:33:57;;;;;;;1.35;1.25;;;15.30;72.90;;;;;;4968440;28;20056;-81
2024/02/17 06:36:22;;;;;;;1.67;1.55;;;15.40;73.00;;;;;;4985865;28;20145;-81
2024/02/17 06:38:51;;;;;;;1.60;1.50;;;15.40;73.00;;;;;;4967093;28;20034;-80
2024/02/17 06:41:18;;;;;;;1.40;1.40;;;15.40;73.00;;;;;;4986753;28;20027;-80
2024/02/17 06:43:44;;;;;;;1.63;1.52;;;15.40;73.00;;;;;;4985373;28;20527;-80
2024/02/17 06:46:12;;;;;;;1.35;1.25;;;15.30;73.10;;;;;;4983151;28;20037;-81
2024/02/17 06:48:38;;;;;;;1.50;1.40;;;15.30;73.00;;;;;;4984839;28;20046;-80
2024/02/17 06:51:04;;;;;;;1.40;1.35;;;15.40;73.00;;;;;;4984007;28;20125;-80
2024/02/17 06:53:29;;;;;;;1.80;1.70;;;15.40;73.00;;;;;;4987297;28;20085;-80
2024/02/17 06:55:55;;;;;;;1.45;1.35;;;15.30;73.00;;;;;;4987041;28;20057;-80
2024/02/17 06:58:21;;;;;;;1.52;1.30;;;15.40;73.10;;;;;;4995718;28;20045;-80
2024/02/17 07:00:47;;;;;;;2.03;1.20;;;15.30;73.10;;;;;;5007343;28;20038;-80
2024/02/17 07:03:14;;;;;;;1.67;1.58;;;15.30;73.00;;;;;;5008051;28;20112;-80
2024/02/17 07:05:40;;;;;;;1.58;1.48;;;15.30;73.10;;;;;;5003946;28;20042;-81
2024/02/17 07:08:07;;;;;;;1.95;1.85;;;15.30;73.10;;;;;;5001023;28;20528;-80
2024/02/17 07:10:35;;;;;;;1.10;1.10;;;15.30;73.10;;;;;;5002062;28;20517;-81
2024/02/17 07:13:01;;;;;;;1.88;1.77;;;15.30;73.20;;;;;;5006136;28;20119;-80
2024/02/17 07:15:27;;;;;;;1.50;1.40;;;15.30;72.40;;;;;;5004489;28;20062;-80
2024/02/17 07:17:52;;;;;;;1.50;1.40;;;15.30;73.00;;;;;;5004347;28;20030;-80
2024/02/17 07:20:18;;;;;;;1.35;1.20;;;15.30;73.10;;;;;;5005642;28;20054;-80
2024/02/17 07:22:45;;;;;;;1.50;1.40;;;15.30;73.10;;;;;;5003904;28;20073;-80
2024/02/17 07:25:11;;;;;;;1.40;1.30;;;15.30;73.20;;;;;;4991212;28;20052;-80
2024/02/17 07:27:37;;;;;;;1.38;1.35;;;15.30;73.80;;;;;;5022975;28;20041;-81
2024/02/17 07:30:03;;;;;;;1.30;1.20;;;15.30;73.10;;;;;;5020158;28;20049;-80
2024/02/17 07:32:30;;;;;;;1.30;1.20;;;15.30;73.10;;;;;;5002755;28;20050;-80
2024/02/17 07:34:55;;;;;;;1.40;1.30;;;15.30;73.20;;;;;;5006218;28;20058;-81
2024/02/17 07:37:21;;;;;;;1.30;1.20;;;15.30;73.10;;;;;;5004369;28;20031;-81
2024/02/17 07:39:46;;;;;;;1.42;1.33;;;15.30;73.30;;;;;;5003329;28;20034;-80
2024/02/17 07:42:12;;;;;;;1.33;1.23;;;15.30;73.20;;;;;;5004546;28;20433;-80
2024/02/17 07:44:40;;;;;;;1.25;1.15;;;15.30;73.10;;;;;;5016294;28;20058;-80
2024/02/17 07:47:06;;;;;;;1.27;1.27;;;15.30;73.10;;;;;;4999653;28;20070;-80
2024/02/17 07:49:32;;;;;;;1.38;1.20;;;15.30;73.20;;;;;;5003390;28;20092;-80
2024/02/17 07:52:00;;;;;;;1.02;1.02;;;15.30;73.20;;;;;;5006029;28;20041;-80
2024/02/17 07:54:26;;;;;;;1.35;1.25;;;15.30;73.10;;;;;;4999941;28;20089;-80
2024/02/17 07:56:51;;;;;;;1.52;1.42;;;15.30;73.20;;;;;;4998715;28;20050;-80
2024/02/17 07:59:17;;;;;;;1.10;1.10;;;15.30;73.20;;;;;;5006247;28;20054;-81
2024/02/17 08:01:43;;;;;;;1.20;1.13;;;15.30;73.20;;;;;;5004992;28;20074;-81
2024/02/17 08:04:08;;;;;;;1.38;1.27;;;15.30;73.20;;;;;;5005111;28;20054;-80
2024/02/17 08:06:34;;;;;;;1.38;1.30;;;15.30;73.10;;;;;;5006015;28;20225;-81
2024/02/17 08:08:59;;;;;;;1.10;1.10;;;15.30;73.10;;;;;;5019493;28;20030;-80
2024/02/17 08:11:25;;;;;;;1.20;1.10;;;15.30;73.20;;;;;;5003898;28;20128;-80
2024/02/17 08:13:50;;;;;;;0.90;0.90;;;15.30;73.20;;;;;;5001913;28;20045;-80
2024/02/17 08:16:16;;;;;;;0.98;0.98;;;15.30;73.20;;;;;;5004644;28;20523;-80
2024/02/17 08:18:42;;;;;;;1.20;1.10;;;15.30;73.10;;;;;;5003042;28;20049;-80
2024/02/17 08:21:09;;;;;;;1.20;1.10;;;15.30;73.20;;;;;;5005382;28;20042;-80
2024/02/17 08:23:34;;;;;;;1.58;1.48;;;15.30;73.10;;;;;;4998244;28;20063;-81
2024/02/17 08:26:00;;;;;;;1.30;1.20;;;15.30;73.20;;;;;;5003361;28;20060;-81
2024/02/17 08:28:27;;;;;;;1.00;1.00;;;15.30;73.20;;;;;;5004609;28;20034;-81
2024/02/17 08:30:53;;;;;;;1.05;1.05;;;15.30;73.20;;;;;;5005841;28;20049;-80
2024/02/17 08:33:18;;;;;;;0.77;0.77;;;15.30;73.20;;;;;;5002154;28;20034;-81
2024/02/17 08:35:49;;;;;;;0.85;0.85;;;15.30;73.10;;;;;;5001895;28;20496;-81
2024/02/17 08:38:16;;;;;;;1.25;1.17;;;15.30;73.10;;;;;;5016072;28;20038;-80
2024/02/17 08:40:42;;;;;;;1.30;1.13;;;15.30;73.20;;;;;;5003955;28;20045;-81
2024/02/17 08:43:08;;;;;;;1.13;1.02;;;15.40;73.20;;;;;;5002351;28;20381;-80
2024/02/17 08:45:34;;;;;;;1.02;0.93;;;15.30;73.90;;;;;;4999132;28;20519;-81
2024/02/17 08:47:59;;;;;;;1.13;1.10;;;15.40;73.20;;;;;;5018086;28;20121;-80
2024/02/17 08:50:25;;;;;;;1.10;1.10;;;15.40;73.20;;;;;;5001659;28;20095;-81
2024/02/17 08:52:50;;;;;;;0.70;0.70;;;15.40;73.20;;;;;;5000629;28;20138;-80
2024/02/17 08:55:16;;;;;;;0.80;0.80;;;15.40;73.20;;;;;;4999595;28;20073;-80
2024/02/17 08:57:41;;;;;;;0.73;0.73;;;15.30;73.20;;;;;;5003626;28;20500;-80
2024/02/17 09:00:08;;;;;;;1.17;1.08;;;15.40;73.40;;;;;;5003351;28;20048;-80
2024/02/17 09:02:33;;;;;;;0.90;0.90;;;15.40;73.20;;;;;;4999336;28;20120;-80
2024/02/17 09:05:00;;;;;;;0.90;0.90;;;15.40;73.30;;;;;;5019525;28;20519;-80
2024/02/17 09:07:28;;;;;;;0.77;0.77;;;15.40;73.30;;;;;;5003492;28;20443;-80
2024/02/17 09:09:54;;;;;;;0.80;0.80;;;15.30;73.20;;;;;;5002943;28;20074;-80
2024/02/17 09:12:20;;;;;;;0.60;0.60;;;15.40;73.30;;;;;;5001261;28;20128;-81
2024/02/17 09:14:46;;;;;;;0.80;0.80;;;15.40;73.30;;;;;;5017389;28;20042;-80
2024/02/17 09:17:12;;;;;;;0.75;0.75;;;15.40;73.20;;;;;;5004427;28;20078;-80
2024/02/17 09:19:38;;;;;;;0.85;0.85;;;15.40;73.40;;;;;;5002193;28;20441;-81
2024/02/17 09:22:03;;;;;;;0.70;0.70;;;15.40;73.30;;;;;;5002365;28;20045;-80
2024/02/17 09:24:31;;;;;;;0.80;0.80;;;15.40;73.30;;;;;;4989245;28;20111;-80
2024/02/17 09:27:00;;;;;;;0.63;0.55;;;15.30;73.20;;;;;;4999822;28;20046;-80
2024/02/17 09:29:28;;;;;;;0.80;0.80;;;15.40;73.30;;;;;;4999494;28;20073;-80
2024/02/17 09:31:54;;;;;;;0.90;0.90;;;15.40;73.80;;;;;;5016607;28;20132;-80
2024/02/17 09:34:20;;;;;;;0.70;0.70;;;15.40;73.30;;;;;;5002908;28;20081;-80
2024/02/17 09:36:47;;;;;;;0.50;0.50;;;15.40;73.30;;;;;;5017993;28;20049;-80
2024/02/17 09:39:13;;;;;;;0.93;0.90;;;15.40;73.40;;;;;;5013061;28;20096;-80
2024/02/17 09:41:39;;;;;;;0.60;0.60;;;15.40;73.40;;;;;;4999909;28;20042;-80
2024/02/17 09:44:04;;;;;;;0.65;0.65;;;15.40;73.30;;;;;;5014720;28;20433;-80
2024/02/17 09:46:30;;;;;;;0.70;0.70;;;15.40;73.30;;;;;;5003275;28;20096;-81
2024/02/17 09:49:02;;;;;;;0.73;0.73;;;15.40;73.40;;;;;;4988309;28;20053;-80
2024/02/17 09:51:31;;;;;;;1.98;0.60;;;15.40;73.40;;;;;;5001244;28;21191;-81
2024/02/17 09:53:57;;;;;;;0.60;0.60;;;15.40;73.50;;;;;;4999917;28;20049;-80
2024/02/17 09:56:26;;;;;;;0.77;0.77;;;15.40;73.40;;;;;;5016377;28;20050;-80
2024/02/17 09:58:51;;;;;;;0.90;0.90;;;15.30;73.40;;;;;;5001358;28;20072;-80
2024/02/17 10:01:18;;;;;;;0.73;0.73;;;15.40;73.40;;;;;;5003219;28;20500;-81
2024/02/17 10:03:43;;;;;;;0.80;0.80;;;15.40;73.50;;;;;;5006321;28;20073;-80
2024/02/17 10:06:11;;;;;;;0.70;0.70;;;15.40;73.70;;;;;;4999148;28;20064;-80
2024/02/17 10:08:37;;;;;;;1.00;1.00;;;15.40;73.50;;;;;;5012039;28;20054;-80
2024/02/17 10:11:03;;;;;;;0.70;0.70;;;15.40;73.50;;;;;;4997626;28;20069;-80
2024/02/17 10:13:28;;;;;;;1.08;0.70;;;15.40;73.40;;;;;;5002661;28;20053;-80
2024/02/17 10:15:54;;;;;;;0.65;0.65;;;15.40;73.60;;;;;;5003428;28;20042;-80
2024/02/17 10:18:19;;;;;;;0.70;0.70;;;15.40;73.50;;;;;;4998619;28;20581;-80
2024/02/17 10:20:45;;;;;;;0.70;0.70;;;15.40;73.50;;;;;;5004033;28;20042;-81
2024/02/17 10:23:11;;;;;;;0.90;0.90;;;15.40;73.60;;;;;;5012938;28;20038;-80
2024/02/17 10:25:37;;;;;;;0.77;0.77;;;15.40;73.80;;;;;;5002427;28;20042;-80
2024/02/17 10:28:03;;;;;;;0.57;0.57;;;15.40;73.60;;;;;;5003916;28;20132;-80
2024/02/17 10:30:28;;;;;;;0.60;0.60;;;15.40;73.60;;;;;;5000022;28;20039;-80
2024/02/17 10:32:54;;;;;;;0.73;0.73;;;15.40;73.60;;;;;;5018695;28;20045;-79
2024/02/17 10:35:19;;;;;;;0.50;0.50;;;15.40;73.60;;;;;;5021079;28;20042;-80
2024/02/17 10:37:47;;;;;;;0.55;0.55;;;15.40;73.60;;;;;;5020938;28;20068;-80
2024/02/17 10:40:14;;;;;;;0.80;0.80;;;15.40;73.60;;;;;;5004737;28;20054;-80
2024/02/17 10:42:39;;;;;;;0.60;0.60;;;15.40;73.60;;;;;;4971447;28;20042;-81
2024/02/17 10:45:06;;;;;;;0.50;0.50;;;15.40;73.70;;;;;;5005697;28;20061;-80
2024/02/17 10:47:35;;;;;;;0.70;0.70;;;15.40;73.70;;;;;;5007129;28;20460;-80
2024/02/17 10:50:14;;;;;;;0.50;0.50;;;15.40;73.70;;;;;;5003819;28;20038;-80
2024/02/17 10:52:44;;;;;;;0.55;0.55;;;15.40;73.80;;;;;;5001537;28;20508;-80
2024/02/17 10:55:13;;;;;;;0.65;0.65;;;15.40;73.80;;;;;;5005288;28;20092;-80
2024/02/17 10:57:54;;;;;;;0.52;0.52;;;15.40;73.80;;;;;;5007639;28;20057;-80
2024/02/17 11:00:20;;;;;;;1.65;0.68;;;15.40;73.80;;;;;;5019512;28;20129;-80
2024/02/17 11:02:47;;;;;;;0.80;0.75;;;15.40;73.80;;;;;;5017961;28;20042;-80
2024/02/17 11:05:14;;;;;;;0.50;0.50;;;15.40;73.80;;;;;;5000473;28;20042;-80
2024/02/17 11:07:39;;;;;;;0.70;0.70;;;15.40;73.80;;;;;;4991633;28;20042;-80
2024/02/17 11:10:06;;;;;;;0.52;0.52;;;15.40;73.70;;;;;;5006505;28;20053;-80
2024/02/17 11:12:33;;;;;;;0.47;0.47;;;15.40;73.80;;;;;;4989703;28;20500;-81
2024/02/17 11:15:03;;;;;;;0.55;0.55;;;15.40;73.80;;;;;;5002139;28;20056;-80
2024/02/17 11:17:36;;;;;;;0.50;0.50;;;15.40;73.80;;;;;;5001130;28;20084;-80
2024/02/17 11:20:12;;;;;;;0.65;0.63;;;15.50;73.90;;;;;;5005144;28;20162;-80
2024/02/17 11:22:40;;;;;;;0.43;0.43;;;15.50;73.90;;;;;;5003591;28;20173;-80
2024/02/17 11:25:09;;;;;;;0.40;0.40;;;15.50;73.70;;;;;;5003583;28;20404;-80
2024/02/17 11:27:35;;;;;;;0.50;0.50;;;15.50;73.80;;;;;;4999213;28;20086;-80
2024/02/17 11:30:01;;;;;;;0.52;0.52;;;15.50;73.70;;;;;;4996893;28;20535;-80
2024/02/17 11:32:28;;;;;;;0.57;0.57;;;15.50;73.70;;;;;;5000574;28;20050;-80
2024/02/17 11:34:55;;;;;;;0.65;0.63;;;15.50;73.80;;;;;;5006057;28;20601;-81
2024/02/17 11:37:21;;;;;;;0.50;0.50;;;15.50;73.70;;;;;;5004251;28;20069;-81
2024/02/17 11:39:47;;;;;;;0.50;0.50;;;15.60;73.70;;;;;;5007907;28;20510;-80
2024/02/17 11:42:15;;;;;;;0.70;0.70;;;15.60;73.70;;;;;;5002391;28;20038;-80
2024/02/17 11:44:40;;;;;;;0.40;0.40;;;15.60;73.40;;;;;;5016642;28;20416;-81
2024/02/17 11:47:06;;;;;;;0.57;0.57;;;15.60;73.50;;;;;;5015780;28;20203;-80
2024/02/17 11:49:34;;;;;;;0.50;0.50;;;15.60;73.40;;;;;;5004009;28;20112;-80
2024/02/17 11:52:00;;;;;;;0.40;0.40;;;15.70;73.40;;;;;;5007579;28;20046;-80
2024/02/17 11:54:25;;;;;;;0.30;0.30;;;15.70;73.40;;;;;;5005983;28;20563;-80
2024/02/17 11:56:51;;;;;;;0.65;0.50;;;15.70;73.40;;;;;;5002232;28;20041;-81
2024/02/17 11:59:17;;;;;;;0.40;0.40;;;15.70;73.30;;;;;;4987434;28;20053;-81
2024/02/17 12:01:43;;;;;;;0.57;0.50;;;15.70;73.40;;;;;;4999685;28;20046;-81
2024/02/17 12:04:09;;;;;;;0.60;0.60;;;15.60;73.40;;;;;;4986635;28;20123;-80
2024/02/17 12:06:35;;;;;;;0.95;0.70;;;15.60;73.60;;;;;;5005954;28;20515;-81
2024/02/17 12:09:00;;;;;;;0.40;0.40;;;15.60;73.70;;;;;;4999273;28;20135;-80
2024/02/17 12:11:26;;;;;;;0.52;0.43;;;15.60;73.80;;;;;;5004779;28;20075;-80
2024/02/17 12:13:52;;;;;;;0.30;0.30;;;15.60;74.60;;;;;;4999480;28;20042;-80
2024/02/17 12:16:18;;;;;;;3.13;0.80;;;15.60;73.60;;;;;;5021249;28;20426;-81
2024/02/17 12:18:44;;;;;;;0.50;0.50;;;15.60;73.80;;;;;;4991296;28;20089;-80
2024/02/17 12:21:10;;;;;;;0.40;0.40;;;15.60;73.70;;;;;;5015373;28;20587;-80
2024/02/17 12:23:36;;;;;;;0.40;0.40;;;15.60;73.60;;;;;;4971923;28;20413;-80
2024/02/17 12:26:03;;;;;;;0.38;0.30;;;15.60;73.60;;;;;;5019880;28;20042;-80
2024/02/17 12:28:29;;;;;;;0.52;0.52;;;15.70;73.60;;;;;;5003537;28;20038;-80
2024/02/17 12:30:56;;;;;;;0.40;0.40;;;15.60;73.30;;;;;;5021791;28;20326;-80
2024/02/17 12:33:21;;;;;;;0.60;0.40;;;15.60;73.20;;;;;;4999457;28;20515;-80
2024/02/17 12:35:48;;;;;;;0.50;0.40;;;15.60;74.00;;;;;;5021807;28;20349;-80
2024/02/17 12:38:19;;;;;;;0.52;0.40;;;15.60;73.20;;;;;;5002883;28;20050;-80
2024/02/17 12:40:45;;;;;;;0.40;0.40;;;15.60;73.30;;;;;;5017139;28;20038;-81
2024/02/17 12:43:24;;;;;;;0.32;0.32;;;15.70;73.40;;;;;;5003987;28;20408;-80
2024/02/17 12:45:50;;;;;;;0.30;0.30;;;15.60;73.80;;;;;;5002114;28;20034;-80